createdAt,value
2023-11-15T00:01:55.038Z,3.45
2023-11-15T00:04:23.141Z,3.58
2023-11-15T00:06:51.713Z,3.80
2023-11-15T00:09:19.905Z,3.33
2023-11-15T00:11:52.432Z,3.28
2023-11-15T00:14:22.091Z,3.90
2023-11-15T00:16:52.206Z,3.35
2023-11-15T00:19:22.255Z,3.65
2023-11-15T00:21:51.003Z,3.60
2023-11-15T00:24:19.780Z,3.53
2023-11-15T00:26:48.200Z,3.67
2023-11-15T00:29:16.324Z,3.45
2023-11-15T00:31:45.798Z,3.22
2023-11-15T00:34:13.885Z,3.67
2023-11-15T00:36:46.044Z,3.63
2023-11-15T00:39:14.154Z,3.42
2023-11-15T00:41:42.432Z,3.58
2023-11-15T00:44:10.546Z,3.60
2023-11-15T00:46:39.240Z,2.90
2023-11-15T00:49:09.391Z,3.22
2023-11-15T00:51:37.584Z,3.13
2023-11-15T00:54:07.836Z,3.00
2023-11-15T00:56:35.962Z,3.28
2023-11-15T00:59:04.421Z,3.33
2023-11-15T01:01:32.745Z,3.65
2023-11-15T01:04:01.059Z,3.97
2023-11-15T01:06:30.700Z,3.28
2023-11-15T01:08:59.079Z,4.10
2023-11-15T01:11:28.007Z,4.60
2023-11-15T01:13:57.180Z,4.78
2023-11-15T01:16:25.936Z,4.40
2023-11-15T01:18:54.867Z,5.47
2023-11-15T01:21:23.106Z,4.57
2023-11-15T01:23:52.805Z,5.97
2023-11-15T01:26:21.823Z,4.97
2023-11-15T01:28:50.281Z,4.53
2023-11-15T01:31:18.366Z,2.97
2023-11-15T01:33:46.558Z,2.20
2023-11-15T01:36:15.585Z,2.30
2023-11-15T01:38:43.795Z,2.65
2023-11-15T01:41:13.947Z,2.20
2023-11-15T01:43:42.049Z,2.33
2023-11-15T01:46:10.496Z,1.80
2023-11-15T01:48:39.274Z,1.48
2023-11-15T01:51:08.441Z,1.48
2023-11-15T01:53:37.442Z,1.35
2023-11-15T01:56:06.506Z,1.33
2023-11-15T01:58:36.303Z,1.30
2023-11-15T02:01:06.471Z,1.42
2023-11-15T02:03:34.824Z,1.10
2023-11-15T02:06:03.193Z,1.58
2023-11-15T02:08:31.370Z,1.02
2023-11-15T02:10:59.595Z,1.30
2023-11-15T02:13:29.327Z,0.90
2023-11-15T02:15:58.186Z,0.80
2023-11-15T02:18:27.215Z,1.10
2023-11-15T02:20:55.609Z,0.98
2023-11-15T02:23:25.073Z,1.20
2023-11-15T02:25:54.740Z,1.00
2023-11-15T02:28:22.862Z,1.02
2023-11-15T02:30:51.309Z,1.10
2023-11-15T02:33:20.113Z,0.98
2023-11-15T02:35:49.054Z,1.17
2023-11-15T02:38:17.602Z,1.10
2023-11-15T02:40:46.809Z,1.10
2023-11-15T02:43:16.370Z,1.00
2023-11-15T02:45:44.759Z,1.52
2023-11-15T02:48:13.195Z,1.15
2023-11-15T02:50:41.396Z,1.27
2023-11-15T02:53:12.664Z,1.88
2023-11-15T02:55:40.829Z,2.72
2023-11-15T02:58:09.170Z,2.38
2023-11-15T03:00:39.178Z,2.40
2023-11-15T03:03:07.785Z,2.05
2023-11-15T03:05:36.439Z,2.22
2023-11-15T03:08:06.890Z,2.10
2023-11-15T03:10:35.184Z,2.28
2023-11-15T03:13:04.767Z,2.10
2023-11-15T03:15:33.325Z,2.78
2023-11-15T03:18:03.067Z,2.00
2023-11-15T03:20:32.165Z,2.30
2023-11-15T03:23:00.274Z,2.60
2023-11-15T03:25:28.348Z,2.15
2023-11-15T03:27:56.814Z,2.25
2023-11-15T03:30:25.513Z,2.80
2023-11-15T03:32:53.673Z,2.90
2023-11-15T03:35:23.372Z,3.03
2023-11-15T03:37:54.302Z,3.38
2023-11-15T03:40:25.320Z,3.97
2023-11-15T03:42:53.520Z,4.10
2023-11-15T03:45:21.755Z,4.32
2023-11-15T03:47:50.015Z,3.67
2023-11-15T03:50:19.589Z,3.92
2023-11-15T03:52:49.038Z,3.72
2023-11-15T03:55:18.284Z,3.20
2023-11-15T03:57:47.634Z,3.67
2023-11-15T04:00:15.430Z,3.47
2023-11-15T04:02:43.578Z,3.55
2023-11-15T04:05:12.094Z,3.10
2023-11-15T04:07:40.451Z,3.25
2023-11-15T04:10:11.700Z,4.13
2023-11-15T04:12:39.868Z,3.65
2023-11-15T04:15:10.481Z,3.53
2023-11-15T04:17:39.147Z,4.05
2023-11-15T04:20:09.892Z,3.70
2023-11-15T04:22:38.010Z,3.63
2023-11-15T04:25:06.983Z,3.60
2023-11-15T04:27:36.474Z,3.45
2023-11-15T04:30:04.949Z,3.22
2023-11-15T04:32:33.077Z,3.95
2023-11-15T04:35:01.247Z,3.83
2023-11-15T04:37:30.299Z,3.30
2023-11-15T04:39:58.925Z,2.90
2023-11-15T04:42:27.023Z,3.05
2023-11-15T04:44:56.485Z,3.05
2023-11-15T04:47:24.622Z,3.05
2023-11-15T04:49:52.728Z,2.97
2023-11-15T04:52:20.864Z,2.95
2023-11-15T04:54:48.999Z,2.55
2023-11-15T04:57:17.278Z,2.22
2023-11-15T04:59:45.410Z,3.30
2023-11-15T05:02:15.085Z,2.70
2023-11-15T05:04:43.363Z,2.88
2023-11-15T05:07:12.170Z,2.97
2023-11-15T05:09:40.346Z,3.45
2023-11-15T05:12:09.049Z,2.75
2023-11-15T05:14:38.008Z,2.50
2023-11-15T05:17:06.572Z,2.70
2023-11-15T05:19:38.262Z,3.55
2023-11-15T05:22:06.647Z,2.95
2023-11-15T05:24:34.865Z,2.80
2023-11-15T05:27:03.385Z,3.33
2023-11-15T05:29:32.091Z,2.80
2023-11-15T05:32:00.386Z,3.40
2023-11-15T05:34:52.076Z,2.80
2023-11-15T05:37:26.376Z,2.92
2023-11-15T05:39:54.473Z,3.53
2023-11-15T05:42:22.605Z,3.88
2023-11-15T05:44:50.824Z,3.05
2023-11-15T05:47:19.038Z,3.53
2023-11-15T05:49:48.142Z,3.63
2023-11-15T05:52:16.619Z,3.58
2023-11-15T05:54:48.045Z,2.92
2023-11-15T05:57:16.334Z,3.63
2023-11-15T05:59:44.583Z,4.70
2023-11-15T06:02:13.523Z,3.90
2023-11-15T06:04:43.064Z,3.42
2023-11-15T06:07:11.392Z,3.28
2023-11-15T06:09:39.528Z,3.63
2023-11-15T06:12:10.607Z,3.35
2023-11-15T06:14:38.816Z,3.28
2023-11-15T06:17:09.125Z,2.67
2023-11-15T06:19:37.675Z,3.20
2023-11-15T06:22:05.966Z,2.97
2023-11-15T06:24:34.320Z,3.40
2023-11-15T06:27:02.433Z,3.42
2023-11-15T06:29:31.969Z,2.80
2023-11-15T06:32:03.816Z,3.33
2023-11-15T06:34:32.040Z,3.53
2023-11-15T06:37:00.786Z,3.88
2023-11-15T06:39:28.855Z,3.40
2023-11-15T06:41:56.979Z,3.13
2023-11-15T06:44:27.630Z,4.10
2023-11-15T06:46:57.240Z,3.45
2023-11-15T06:49:25.353Z,3.42
2023-11-15T06:51:53.419Z,3.58
2023-11-15T06:54:21.519Z,3.00
2023-11-15T06:56:49.884Z,4.47
2023-11-15T06:59:18.435Z,3.42
2023-11-15T07:01:51.151Z,3.00
2023-11-15T07:04:23.607Z,3.47
2023-11-15T07:06:52.048Z,3.60
2023-11-15T07:09:20.509Z,3.60
2023-11-15T07:11:49.641Z,4.93
2023-11-15T07:14:18.137Z,4.50
2023-11-15T07:16:47.697Z,3.50
2023-11-15T07:19:15.974Z,3.40
2023-11-15T07:21:45.454Z,5.15
2023-11-15T07:24:14.190Z,4.72
2023-11-15T07:26:42.380Z,4.32
2023-11-15T07:29:11.308Z,4.57
2023-11-15T07:31:42.086Z,3.75
2023-11-15T07:34:11.906Z,4.15
2023-11-15T07:36:39.934Z,4.20
2023-11-15T07:39:14.952Z,4.20
2023-11-15T07:41:45.741Z,3.90
2023-11-15T07:44:17.201Z,3.55
2023-11-15T07:46:51.253Z,2.50
2023-11-15T07:49:21.663Z,2.83
2023-11-15T07:51:50.658Z,2.67
2023-11-15T07:54:20.721Z,2.10
2023-11-15T07:56:49.186Z,2.00
2023-11-15T07:59:18.208Z,2.20
2023-11-15T08:01:48.340Z,2.85
2023-11-15T08:04:17.391Z,2.92
2023-11-15T08:06:48.304Z,4.18
2023-11-15T08:09:26.422Z,4.65
2023-11-15T08:11:57.882Z,5.30
2023-11-15T08:14:27.039Z,4.53
2023-11-15T08:16:57.910Z,4.50
2023-11-15T08:19:26.120Z,3.90
2023-11-15T08:21:54.282Z,4.43
2023-11-15T08:24:23.283Z,4.22
2023-11-15T08:26:53.767Z,4.55
2023-11-15T08:29:24.369Z,4.18
2023-11-15T08:31:52.777Z,4.13
2023-11-15T08:34:23.882Z,4.00
2023-11-15T08:36:52.978Z,4.35
2023-11-15T08:39:23.712Z,3.83
2023-11-15T08:41:54.938Z,3.97
2023-11-15T08:44:24.535Z,4.25
2023-11-15T08:46:52.825Z,3.50
2023-11-15T08:49:21.776Z,4.03
2023-11-15T08:51:51.917Z,3.50
2023-11-15T08:54:20.281Z,3.90
2023-11-15T08:56:48.426Z,3.97
2023-11-15T08:59:16.865Z,3.70
2023-11-15T09:01:49.058Z,3.72
2023-11-15T09:04:17.656Z,4.00
2023-11-15T09:06:48.262Z,3.22
2023-11-15T09:09:17.193Z,3.35
2023-11-15T09:11:46.146Z,3.00
2023-11-15T09:14:15.945Z,3.25
2023-11-15T09:16:45.970Z,2.50
2023-11-15T09:19:18.664Z,3.58
2023-11-15T09:21:50.160Z,2.88
2023-11-15T09:24:23.811Z,2.80
2023-11-15T09:26:53.118Z,2.53
2023-11-15T09:29:21.621Z,2.53
2023-11-15T09:31:51.240Z,2.85
2023-11-15T09:34:21.779Z,2.95
2023-11-15T09:36:53.312Z,2.30
2023-11-15T09:39:21.847Z,3.38
2023-11-15T09:41:55.314Z,3.00
2023-11-15T09:44:24.951Z,3.20
2023-11-15T09:46:59.123Z,3.08
2023-11-15T09:49:30.922Z,3.53
2023-11-15T09:52:00.424Z,3.20
2023-11-15T09:54:30.379Z,3.38
2023-11-15T09:57:00.876Z,3.70
2023-11-15T09:59:31.402Z,3.38
2023-11-15T10:01:59.782Z,2.83
2023-11-15T10:04:31.175Z,2.83
2023-11-15T10:07:05.875Z,3.20
2023-11-15T10:09:39.985Z,2.88
2023-11-15T10:12:09.387Z,2.60
2023-11-15T10:14:52.382Z,3.13
2023-11-15T10:17:40.779Z,2.90
2023-11-15T10:20:21.366Z,2.88
2023-11-15T10:22:49.810Z,2.63
2023-11-15T10:25:19.335Z,2.83
2023-11-15T10:27:48.120Z,2.85
2023-11-15T10:30:21.795Z,3.22
2023-11-15T10:32:52.336Z,3.00
2023-11-15T10:35:29.657Z,2.10
2023-11-15T10:37:58.634Z,2.53
2023-11-15T10:40:30.117Z,2.20
2023-11-15T10:43:00.070Z,2.40
2023-11-15T10:45:29.630Z,2.88
2023-11-15T10:48:00.035Z,3.10
2023-11-15T10:50:32.339Z,2.90
2023-11-15T10:53:01.530Z,3.47
2023-11-15T10:55:31.160Z,3.15
2023-11-15T10:58:04.181Z,2.65
2023-11-15T11:00:32.530Z,2.50
2023-11-15T11:03:00.788Z,2.30
2023-11-15T11:05:43.133Z,2.53
2023-11-15T11:08:21.842Z,2.20
2023-11-15T11:10:57.816Z,2.97
2023-11-15T11:13:25.912Z,2.38
2023-11-15T11:15:54.072Z,2.33
2023-11-15T11:18:23.428Z,1.85
2023-11-15T11:21:01.191Z,3.13
2023-11-15T11:23:35.327Z,2.50
2023-11-15T11:26:33.781Z,2.38
2023-11-15T11:29:04.169Z,3.05
2023-11-15T11:31:32.546Z,2.10
2023-11-15T11:34:11.847Z,2.20
2023-11-15T11:36:51.026Z,2.38
2023-11-15T11:39:23.945Z,2.95
2023-11-15T11:41:52.421Z,2.08
2023-11-15T11:44:20.549Z,2.67
2023-11-15T11:47:03.997Z,2.33
2023-11-15T11:49:47.933Z,1.92
2023-11-15T11:52:21.123Z,2.17
2023-11-15T11:54:53.092Z,2.83
2023-11-15T11:57:25.513Z,2.22
2023-11-15T12:00:05.961Z,1.77
2023-11-15T12:02:35.386Z,1.90
2023-11-15T12:05:07.768Z,2.03
2023-11-15T12:07:43.799Z,2.10
2023-11-15T12:10:13.713Z,2.20
2023-11-15T12:12:42.544Z,2.00
2023-11-15T12:15:14.462Z,2.25
2023-11-15T12:17:45.468Z,2.45
2023-11-15T12:20:14.909Z,1.65
2023-11-15T12:22:46.843Z,2.38
2023-11-15T12:25:16.864Z,1.77
2023-11-15T12:27:45.718Z,1.80
2023-11-15T12:30:14.188Z,2.20
2023-11-15T12:32:43.416Z,1.85
2023-11-15T12:35:12.044Z,2.00
2023-11-15T12:37:40.574Z,1.85
2023-11-15T12:40:20.387Z,1.77
2023-11-15T12:42:49.279Z,1.52
2023-11-15T12:45:29.849Z,2.10
2023-11-15T12:48:09.058Z,1.60
2023-11-15T12:50:42.623Z,2.25
2023-11-15T12:53:15.978Z,1.60
2023-11-15T12:55:51.756Z,1.90
2023-11-15T12:58:20.868Z,1.73
2023-11-15T13:01:02.476Z,1.63
2023-11-15T13:03:34.311Z,1.50
2023-11-15T13:06:12.842Z,1.00
2023-11-15T13:08:42.395Z,1.20
2023-11-15T13:11:13.446Z,1.58
2023-11-15T13:13:41.740Z,1.33
2023-11-15T13:16:10.589Z,1.40
2023-11-15T13:18:39.397Z,1.15
2023-11-15T13:21:08.647Z,1.25
2023-11-15T13:23:40.617Z,1.40
2023-11-15T13:26:11.564Z,1.30
2023-11-15T13:28:43.411Z,1.70
2023-11-15T13:31:15.381Z,1.40
2023-11-15T13:33:48.709Z,1.60
2023-11-15T13:36:21.061Z,1.83
2023-11-15T13:38:50.108Z,1.40
2023-11-15T13:41:23.696Z,1.70
2023-11-15T13:43:54.453Z,1.85
2023-11-15T13:46:24.519Z,1.45
2023-11-15T13:48:54.338Z,2.42
2023-11-15T13:51:23.354Z,1.60
2023-11-15T13:53:52.018Z,1.55
2023-11-15T13:56:21.114Z,1.70
2023-11-15T13:58:53.319Z,1.50
2023-11-15T14:01:25.397Z,2.10
2023-11-15T14:03:53.693Z,1.48
2023-11-15T14:06:21.812Z,1.73
2023-11-15T14:08:58.242Z,1.80
2023-11-15T14:11:30.280Z,1.73
2023-11-15T14:14:00.117Z,1.50
2023-11-15T14:16:28.536Z,1.20
2023-11-15T14:19:03.444Z,2.00
2023-11-15T14:21:32.069Z,2.15
2023-11-15T14:24:00.182Z,1.98
2023-11-15T14:26:28.865Z,2.00
2023-11-15T14:28:56.940Z,1.73
2023-11-15T14:31:26.384Z,2.22
2023-11-15T14:33:54.592Z,2.30
2023-11-15T14:36:26.179Z,1.70
2023-11-15T14:38:55.942Z,1.83
2023-11-15T14:41:24.191Z,1.92
2023-11-15T14:43:52.439Z,2.22
2023-11-15T14:46:24.566Z,2.00
2023-11-15T14:48:54.760Z,2.30
2023-11-15T14:51:23.010Z,3.00
2023-11-15T14:53:56.557Z,2.00
2023-11-15T14:56:25.249Z,1.90
2023-11-15T14:58:55.452Z,1.80
2023-11-15T15:01:25.770Z,2.20
2023-11-15T15:03:55.413Z,2.42
2023-11-15T15:06:23.727Z,2.30
2023-11-15T15:08:51.803Z,1.70
2023-11-15T15:11:19.895Z,1.83
2023-11-15T15:13:47.978Z,2.60
2023-11-15T15:16:17.910Z,2.17
2023-11-15T15:18:46.227Z,2.45
2023-11-15T15:21:18.342Z,2.10
2023-11-15T15:23:46.432Z,2.00
2023-11-15T15:26:15.548Z,2.30
2023-11-15T15:28:43.649Z,1.80
2023-11-15T15:31:13.993Z,3.08
2023-11-15T15:33:43.690Z,2.50
2023-11-15T15:36:14.208Z,2.10
2023-11-15T15:38:43.763Z,1.92
2023-11-15T15:41:11.927Z,1.75
2023-11-15T15:43:40.063Z,2.38
2023-11-15T15:46:08.369Z,2.58
2023-11-15T15:48:36.564Z,1.50
2023-11-15T15:51:05.000Z,2.78
2023-11-15T15:53:33.174Z,2.17
2023-11-15T15:56:02.780Z,2.33
2023-11-15T15:58:30.846Z,2.45
2023-11-15T16:00:59.156Z,2.22
2023-11-15T16:03:27.905Z,2.40
2023-11-15T16:05:57.104Z,1.88
2023-11-15T16:08:27.868Z,2.72
2023-11-15T16:10:57.305Z,2.38
2023-11-15T16:13:26.731Z,2.85
2023-11-15T16:15:54.881Z,2.08
2023-11-15T16:18:23.674Z,2.28
2023-11-15T16:20:55.077Z,2.20
2023-11-15T16:23:23.237Z,2.00
2023-11-15T16:25:52.710Z,2.10
2023-11-15T16:28:22.127Z,2.10
2023-11-15T16:30:51.610Z,2.25
2023-11-15T16:33:19.826Z,2.30
2023-11-15T16:35:50.025Z,2.25
2023-11-15T16:38:18.162Z,2.05
2023-11-15T16:40:46.330Z,2.35
2023-11-15T16:43:15.329Z,2.22
2023-11-15T16:45:43.791Z,2.95
2023-11-15T16:48:13.368Z,2.33
2023-11-15T16:50:43.884Z,2.17
2023-11-15T16:53:13.094Z,2.50
2023-11-15T16:55:41.719Z,2.67
2023-11-15T16:58:12.176Z,2.85
2023-11-15T17:00:41.025Z,2.72
2023-11-15T17:03:10.202Z,3.10
2023-11-15T17:05:40.476Z,3.70
2023-11-15T17:08:08.695Z,3.45
2023-11-15T17:10:37.275Z,3.42
2023-11-15T17:13:06.551Z,2.80
2023-11-15T17:15:34.706Z,2.85
2023-11-15T17:18:03.333Z,2.22
2023-11-15T17:20:33.707Z,3.65
2023-11-15T17:23:08.846Z,4.60
2023-11-15T17:25:37.489Z,3.65
2023-11-15T17:28:06.690Z,3.65
2023-11-15T17:30:34.765Z,2.70
2023-11-15T17:33:04.102Z,2.80
2023-11-15T17:35:32.217Z,2.90
2023-11-15T17:38:00.492Z,3.13
2023-11-15T17:40:31.965Z,3.60
2023-11-15T17:43:01.267Z,3.35
2023-11-15T17:45:32.756Z,3.53
2023-11-15T17:48:01.052Z,4.10
2023-11-15T17:50:31.674Z,3.13
2023-11-15T17:53:00.129Z,3.35
2023-11-15T17:55:29.796Z,3.35
2023-11-15T17:57:57.946Z,2.97
2023-11-15T18:00:26.122Z,2.90
2023-11-15T18:02:54.380Z,3.13
2023-11-15T18:05:23.481Z,2.72
2023-11-15T18:07:55.809Z,2.78
2023-11-15T18:10:29.528Z,2.63
2023-11-15T18:12:59.635Z,3.53
2023-11-15T18:15:28.045Z,2.95
2023-11-15T18:17:56.328Z,2.70
2023-11-15T18:20:25.026Z,3.42
2023-11-15T18:22:55.408Z,2.25
2023-11-15T18:25:23.673Z,2.60
2023-11-15T18:27:51.758Z,2.90
2023-11-15T18:30:21.215Z,2.83
2023-11-15T18:32:49.553Z,2.60
2023-11-15T18:35:18.362Z,2.72
2023-11-15T18:37:46.563Z,2.70
2023-11-15T18:40:18.240Z,2.40
2023-11-15T18:42:46.504Z,3.27
2023-11-15T18:45:15.073Z,2.70
2023-11-15T18:47:45.671Z,2.53
2023-11-15T18:50:15.776Z,2.90
2023-11-15T18:52:44.821Z,2.53
2023-11-15T18:55:18.840Z,2.80
2023-11-15T18:57:47.024Z,2.70
2023-11-15T19:00:19.412Z,2.50
2023-11-15T19:02:49.653Z,2.97
2023-11-15T19:05:19.036Z,2.80
2023-11-15T19:07:47.676Z,2.58
2023-11-15T19:10:19.022Z,3.53
2023-11-15T19:12:49.857Z,2.60
2023-11-15T19:15:22.120Z,2.50
2023-11-15T19:17:51.872Z,2.35
2023-11-15T19:20:21.960Z,3.03
2023-11-15T19:22:54.481Z,3.00
2023-11-15T19:25:24.149Z,3.15
2023-11-15T19:27:52.246Z,2.75
2023-11-15T19:30:24.456Z,2.70
2023-11-15T19:32:56.904Z,2.78
2023-11-15T19:35:25.480Z,2.60
2023-11-15T19:37:53.555Z,2.95
2023-11-15T19:40:21.628Z,2.67
2023-11-15T19:42:50.487Z,2.50
2023-11-15T19:45:19.103Z,3.35
2023-11-15T19:47:48.007Z,3.40
2023-11-15T19:50:17.496Z,2.53
2023-11-15T19:52:46.453Z,3.28
2023-11-15T19:55:16.227Z,3.17
2023-11-15T19:57:44.502Z,2.60
2023-11-15T20:00:13.859Z,3.80
2023-11-15T20:02:46.825Z,2.25
2023-11-15T20:05:18.066Z,2.72
2023-11-15T20:07:46.444Z,3.42
2023-11-15T20:10:14.693Z,2.35
2023-11-15T20:12:44.349Z,2.55
2023-11-15T20:15:14.392Z,2.67
2023-11-15T20:17:46.608Z,2.80
2023-11-15T20:20:16.097Z,2.58
2023-11-15T20:22:51.801Z,2.75
2023-11-15T20:25:22.004Z,2.60
2023-11-15T20:27:50.252Z,2.25
2023-11-15T20:30:19.426Z,2.65
2023-11-15T20:32:48.130Z,2.28
2023-11-15T20:35:17.586Z,2.60
2023-11-15T20:37:47.060Z,3.05
2023-11-15T20:40:16.986Z,2.65
2023-11-15T20:42:48.791Z,3.03
2023-11-15T20:45:19.781Z,2.63
2023-11-15T20:47:48.100Z,3.13
2023-11-15T20:50:16.528Z,2.70
2023-11-15T20:52:47.386Z,2.90
2023-11-15T20:55:20.642Z,3.25
2023-11-15T20:57:50.380Z,2.50
2023-11-15T21:00:26.931Z,2.72
2023-11-15T21:02:57.068Z,3.00
2023-11-15T21:05:26.331Z,3.00
2023-11-15T21:07:56.607Z,3.15
2023-11-15T21:10:25.091Z,3.28
2023-11-15T21:12:53.562Z,3.40
2023-11-15T21:15:22.178Z,3.10
2023-11-15T21:17:50.238Z,3.20
2023-11-15T21:20:18.472Z,3.20
2023-11-15T21:22:49.095Z,2.80
2023-11-15T21:25:19.016Z,3.00
2023-11-15T21:27:49.606Z,2.53
2023-11-15T21:30:19.334Z,2.28
2023-11-15T21:32:48.163Z,2.42
2023-11-15T21:35:16.465Z,2.33
2023-11-15T21:37:46.057Z,2.20
2023-11-15T21:40:16.680Z,2.58
2023-11-15T21:42:48.564Z,2.28
2023-11-15T21:45:18.898Z,3.00
2023-11-15T21:47:47.243Z,2.33
2023-11-15T21:50:16.857Z,2.17
2023-11-15T21:52:45.605Z,1.75
2023-11-15T21:55:13.831Z,2.72
2023-11-15T21:57:42.107Z,2.67
2023-11-15T22:00:15.902Z,2.40
2023-11-15T22:02:44.340Z,1.90
2023-11-15T22:05:12.701Z,2.20
2023-11-15T22:07:41.010Z,2.20
2023-11-15T22:10:10.617Z,2.00
2023-11-15T22:12:39.035Z,2.58
2023-11-15T22:15:10.087Z,1.85
2023-11-15T22:17:41.126Z,2.08
2023-11-15T22:20:11.943Z,1.95
2023-11-15T22:22:40.401Z,2.33
2023-11-15T22:25:08.981Z,2.33
2023-11-15T22:27:39.918Z,3.13
2023-11-15T22:30:11.268Z,2.65
2023-11-15T22:32:41.479Z,1.98
2023-11-15T22:35:11.060Z,2.60
2023-11-15T22:37:39.359Z,3.33
2023-11-15T22:40:08.419Z,2.75
2023-11-15T22:42:36.540Z,2.50
2023-11-15T22:45:05.636Z,2.50
2023-11-15T22:47:34.819Z,2.30
2023-11-15T22:50:05.788Z,2.05
2023-11-15T22:52:34.646Z,2.50
2023-11-15T22:55:02.764Z,2.17
2023-11-15T22:57:30.870Z,2.53
2023-11-15T22:59:59.281Z,2.55
2023-11-15T23:02:27.612Z,2.78
2023-11-15T23:04:56.719Z,3.38
2023-11-15T23:07:26.534Z,3.28
2023-11-15T23:09:54.682Z,2.53
2023-11-15T23:12:24.133Z,2.55
2023-11-15T23:14:52.277Z,2.83
2023-11-15T23:17:22.723Z,2.63
2023-11-15T23:19:51.895Z,2.60
2023-11-15T23:22:20.027Z,2.38
2023-11-15T23:24:49.453Z,2.60
2023-11-15T23:27:18.159Z,2.70
2023-11-15T23:29:46.314Z,2.63
2023-11-15T23:32:14.548Z,2.40
2023-11-15T23:34:43.483Z,2.55
2023-11-15T23:37:11.624Z,2.33
2023-11-15T23:39:39.834Z,2.85
2023-11-15T23:42:10.932Z,2.67
2023-11-15T23:44:42.726Z,2.28
2023-11-15T23:47:10.924Z,2.28
2023-11-15T23:49:39.074Z,2.13
2023-11-15T23:52:07.765Z,2.42
2023-11-15T23:54:38.512Z,2.70
2023-11-15T23:57:09.481Z,2.10
2023-11-15T23:59:40.634Z,1.80
